sensor_id;sensor_type;location;lat;lon;timestamp;P1;durP1;ratioP1;P2;durP2;ratioP2
20138;SDS011;10230;51.502;10.800;2022-07-06T00:01:25;2.40;;;1.02;;
20138;SDS011;10230;51.502;10.800;2022-07-06T00:03:51;2.85;;;1.10;;
20138;SDS011;10230;51.502;10.800;2022-07-06T00:06:17;1.58;;;0.90;;
20138;SDS011;10230;51.502;10.800;2022-07-06T00:08:43;2.88;;;1.10;;
20138;SDS011;10230;51.502;10.800;2022-07-06T00:11:09;2.17;;;0.90;;
20138;SDS011;10230;51.502;10.800;2022-07-06T00:13:35;2.00;;;0.90;;
20138;SDS011;10230;51.502;10.800;2022-07-06T00:16:01;3.22;;;1.02;;
20138;SDS011;10230;51.502;10.800;2022-07-06T00:18:28;2.85;;;1.25;;
20138;SDS011;10230;51.502;10.800;2022-07-06T00:20:54;2.83;;;0.93;;
20138;SDS011;10230;51.502;10.800;2022-07-06T00:23:20;3.67;;;1.20;;
20138;SDS011;10230;51.502;10.800;2022-07-06T00:25:46;1.70;;;0.90;;
20138;SDS011;10230;51.502;10.800;2022-07-06T00:28:13;1.83;;;0.75;;
20138;SDS011;10230;51.502;10.800;2022-07-06T00:30:39;3.28;;;1.00;;
20138;SDS011;10230;51.502;10.800;2022-07-06T00:33:05;3.33;;;1.05;;
20138;SDS011;10230;51.502;10.800;2022-07-06T00:35:32;2.13;;;1.20;;
20138;SDS011;10230;51.502;10.800;2022-07-06T00:37:58;3.17;;;1.20;;
20138;SDS011;10230;51.502;10.800;2022-07-06T00:40:24;1.20;;;0.63;;
20138;SDS011;10230;51.502;10.800;2022-07-06T00:42:50;2.13;;;1.13;;
20138;SDS011;10230;51.502;10.800;2022-07-06T00:45:16;3.00;;;1.33;;
20138;SDS011;10230;51.502;10.800;2022-07-06T00:47:43;2.67;;;1.17;;
20138;SDS011;10230;51.502;10.800;2022-07-06T00:50:10;5.18;;;1.20;;
20138;SDS011;10230;51.502;10.800;2022-07-06T00:52:43;2.88;;;0.93;;
20138;SDS011;10230;51.502;10.800;2022-07-06T00:55:10;3.40;;;1.27;;
20138;SDS011;10230;51.502;10.800;2022-07-06T00:57:37;2.38;;;1.08;;
20138;SDS011;10230;51.502;10.800;2022-07-06T01:00:03;2.20;;;1.30;;
20138;SDS011;10230;51.502;10.800;2022-07-06T01:02:33;1.55;;;0.95;;
20138;SDS011;10230;51.502;10.800;2022-07-06T01:05:00;1.85;;;1.02;;
20138;SDS011;10230;51.502;10.800;2022-07-06T01:07:26;3.17;;;1.02;;
20138;SDS011;10230;51.502;10.800;2022-07-06T01:09:53;3.13;;;1.20;;
20138;SDS011;10230;51.502;10.800;2022-07-06T01:12:19;3.33;;;1.13;;
20138;SDS011;10230;51.502;10.800;2022-07-06T01:14:45;2.80;;;1.20;;
20138;SDS011;10230;51.502;10.800;2022-07-06T01:17:11;1.75;;;1.35;;
20138;SDS011;10230;51.502;10.800;2022-07-06T01:19:38;2.15;;;1.17;;
20138;SDS011;10230;51.502;10.800;2022-07-06T01:22:05;2.50;;;1.20;;
20138;SDS011;10230;51.502;10.800;2022-07-06T01:24:31;2.80;;;1.17;;
20138;SDS011;10230;51.502;10.800;2022-07-06T01:26:57;2.30;;;1.30;;
20138;SDS011;10230;51.502;10.800;2022-07-06T01:29:23;2.72;;;1.75;;
20138;SDS011;10230;51.502;10.800;2022-07-06T01:31:50;4.25;;;1.52;;
20138;SDS011;10230;51.502;10.800;2022-07-06T01:34:16;4.20;;;1.85;;
20138;SDS011;10230;51.502;10.800;2022-07-06T01:36:43;3.58;;;1.67;;
20138;SDS011;10230;51.502;10.800;2022-07-06T01:39:09;5.28;;;1.38;;
20138;SDS011;10230;51.502;10.800;2022-07-06T01:41:35;2.25;;;1.30;;
20138;SDS011;10230;51.502;10.800;2022-07-06T01:44:02;3.00;;;1.27;;
20138;SDS011;10230;51.502;10.800;2022-07-06T01:46:28;3.92;;;1.30;;
20138;SDS011;10230;51.502;10.800;2022-07-06T01:48:54;3.03;;;1.40;;
20138;SDS011;10230;51.502;10.800;2022-07-06T01:51:20;4.22;;;1.80;;
20138;SDS011;10230;51.502;10.800;2022-07-06T01:53:46;3.28;;;1.42;;
20138;SDS011;10230;51.502;10.800;2022-07-06T01:56:12;4.30;;;1.50;;
20138;SDS011;10230;51.502;10.800;2022-07-06T01:58:39;3.70;;;1.10;;
20138;SDS011;10230;51.502;10.800;2022-07-06T02:01:15;2.30;;;1.20;;
20138;SDS011;10230;51.502;10.800;2022-07-06T02:03:41;1.23;;;1.02;;
20138;SDS011;10230;51.502;10.800;2022-07-06T02:06:08;2.88;;;1.30;;
20138;SDS011;10230;51.502;10.800;2022-07-06T02:08:34;2.05;;;1.30;;
20138;SDS011;10230;51.502;10.800;2022-07-06T02:11:01;2.63;;;1.35;;
20138;SDS011;10230;51.502;10.800;2022-07-06T02:13:27;3.08;;;1.33;;
20138;SDS011;10230;51.502;10.800;2022-07-06T02:15:53;1.77;;;1.10;;
20138;SDS011;10230;51.502;10.800;2022-07-06T02:18:19;2.38;;;1.25;;
20138;SDS011;10230;51.502;10.800;2022-07-06T02:20:45;1.73;;;1.40;;
20138;SDS011;10230;51.502;10.800;2022-07-06T02:23:11;3.50;;;1.38;;
20138;SDS011;10230;51.502;10.800;2022-07-06T02:25:37;5.45;;;1.88;;
20138;SDS011;10230;51.502;10.800;2022-07-06T02:28:03;5.28;;;1.50;;
20138;SDS011;10230;51.502;10.800;2022-07-06T02:30:29;1.42;;;1.23;;
20138;SDS011;10230;51.502;10.800;2022-07-06T02:32:56;3.47;;;1.30;;
20138;SDS011;10230;51.502;10.800;2022-07-06T02:35:22;2.60;;;1.23;;
20138;SDS011;10230;51.502;10.800;2022-07-06T02:37:48;1.52;;;1.20;;
20138;SDS011;10230;51.502;10.800;2022-07-06T02:40:14;2.13;;;1.40;;
20138;SDS011;10230;51.502;10.800;2022-07-06T02:42:40;3.75;;;1.33;;
20138;SDS011;10230;51.502;10.800;2022-07-06T02:45:06;2.20;;;1.13;;
20138;SDS011;10230;51.502;10.800;2022-07-06T02:47:32;2.72;;;1.25;;
20138;SDS011;10230;51.502;10.800;2022-07-06T02:49:58;2.30;;;1.40;;
20138;SDS011;10230;51.502;10.800;2022-07-06T02:52:24;2.92;;;1.20;;
20138;SDS011;10230;51.502;10.800;2022-07-06T02:54:51;2.67;;;1.30;;
20138;SDS011;10230;51.502;10.800;2022-07-06T02:57:17;3.85;;;1.20;;
20138;SDS011;10230;51.502;10.800;2022-07-06T02:59:43;4.43;;;1.60;;
20138;SDS011;10230;51.502;10.800;2022-07-06T03:02:09;3.03;;;1.60;;
20138;SDS011;10230;51.502;10.800;2022-07-06T03:04:35;3.65;;;1.77;;
20138;SDS011;10230;51.502;10.800;2022-07-06T03:07:01;4.63;;;1.63;;
20138;SDS011;10230;51.502;10.800;2022-07-06T03:09:27;4.07;;;2.75;;
20138;SDS011;10230;51.502;10.800;2022-07-06T03:11:53;3.13;;;1.85;;
20138;SDS011;10230;51.502;10.800;2022-07-06T03:14:19;2.35;;;1.77;;
20138;SDS011;10230;51.502;10.800;2022-07-06T03:16:45;3.55;;;2.00;;
20138;SDS011;10230;51.502;10.800;2022-07-06T03:19:12;2.83;;;1.98;;
20138;SDS011;10230;51.502;10.800;2022-07-06T03:21:38;3.47;;;2.47;;
20138;SDS011;10230;51.502;10.800;2022-07-06T03:24:04;5.30;;;2.40;;
20138;SDS011;10230;51.502;10.800;2022-07-06T03:26:30;3.60;;;2.00;;
20138;SDS011;10230;51.502;10.800;2022-07-06T03:28:56;3.25;;;2.30;;
20138;SDS011;10230;51.502;10.800;2022-07-06T03:31:22;3.13;;;1.83;;
20138;SDS011;10230;51.502;10.800;2022-07-06T03:33:48;4.72;;;2.38;;
20138;SDS011;10230;51.502;10.800;2022-07-06T03:36:14;5.45;;;1.92;;
20138;SDS011;10230;51.502;10.800;2022-07-06T03:38:40;2.67;;;1.40;;
20138;SDS011;10230;51.502;10.800;2022-07-06T03:41:06;8.43;;;1.65;;
20138;SDS011;10230;51.502;10.800;2022-07-06T03:43:32;3.23;;;2.07;;
20138;SDS011;10230;51.502;10.800;2022-07-06T03:45:58;2.03;;;1.65;;
20138;SDS011;10230;51.502;10.800;2022-07-06T03:48:24;3.47;;;1.67;;
20138;SDS011;10230;51.502;10.800;2022-07-06T03:50:50;5.80;;;1.67;;
20138;SDS011;10230;51.502;10.800;2022-07-06T03:53:16;4.05;;;2.80;;
20138;SDS011;10230;51.502;10.800;2022-07-06T03:55:43;5.80;;;2.63;;
20138;SDS011;10230;51.502;10.800;2022-07-06T03:58:29;3.67;;;3.30;;
20138;SDS011;10230;51.502;10.800;2022-07-06T04:00:55;5.73;;;2.60;;
20138;SDS011;10230;51.502;10.800;2022-07-06T04:03:21;4.57;;;2.55;;
20138;SDS011;10230;51.502;10.800;2022-07-06T04:05:47;4.68;;;2.90;;
20138;SDS011;10230;51.502;10.800;2022-07-06T04:08:13;3.72;;;2.40;;
20138;SDS011;10230;51.502;10.800;2022-07-06T04:10:39;7.87;;;2.90;;
20138;SDS011;10230;51.502;10.800;2022-07-06T04:13:05;4.47;;;2.95;;
20138;SDS011;10230;51.502;10.800;2022-07-06T04:15:31;5.50;;;3.00;;
20138;SDS011;10230;51.502;10.800;2022-07-06T04:17:57;6.50;;;3.00;;
20138;SDS011;10230;51.502;10.800;2022-07-06T04:20:23;4.43;;;2.50;;
20138;SDS011;10230;51.502;10.800;2022-07-06T04:22:50;4.17;;;2.20;;
20138;SDS011;10230;51.502;10.800;2022-07-06T04:25:17;5.67;;;2.40;;
20138;SDS011;10230;51.502;10.800;2022-07-06T04:27:43;8.15;;;2.67;;
20138;SDS011;10230;51.502;10.800;2022-07-06T04:30:10;3.67;;;2.00;;
20138;SDS011;10230;51.502;10.800;2022-07-06T04:32:36;4.77;;;2.40;;
20138;SDS011;10230;51.502;10.800;2022-07-06T04:35:03;7.72;;;3.20;;
20138;SDS011;10230;51.502;10.800;2022-07-06T04:37:29;4.93;;;2.80;;
20138;SDS011;10230;51.502;10.800;2022-07-06T04:39:55;4.80;;;2.70;;
20138;SDS011;10230;51.502;10.800;2022-07-06T04:42:21;5.53;;;3.00;;
20138;SDS011;10230;51.502;10.800;2022-07-06T04:44:47;4.22;;;2.55;;
20138;SDS011;10230;51.502;10.800;2022-07-06T04:47:13;5.87;;;2.90;;
20138;SDS011;10230;51.502;10.800;2022-07-06T04:49:39;3.30;;;2.70;;
20138;SDS011;10230;51.502;10.800;2022-07-06T04:52:05;4.85;;;3.05;;
20138;SDS011;10230;51.502;10.800;2022-07-06T04:54:32;5.82;;;2.83;;
20138;SDS011;10230;51.502;10.800;2022-07-06T04:56:59;5.43;;;3.05;;
20138;SDS011;10230;51.502;10.800;2022-07-06T04:59:25;3.30;;;2.72;;
20138;SDS011;10230;51.502;10.800;2022-07-06T05:01:51;5.50;;;3.03;;
20138;SDS011;10230;51.502;10.800;2022-07-06T05:04:17;5.45;;;3.83;;
20138;SDS011;10230;51.502;10.800;2022-07-06T05:06:46;5.47;;;4.82;;
20138;SDS011;10230;51.502;10.800;2022-07-06T05:09:12;4.72;;;3.58;;
20138;SDS011;10230;51.502;10.800;2022-07-06T05:11:38;5.68;;;2.80;;
20138;SDS011;10230;51.502;10.800;2022-07-06T05:14:05;5.03;;;3.38;;
20138;SDS011;10230;51.502;10.800;2022-07-06T05:16:31;3.97;;;3.40;;
20138;SDS011;10230;51.502;10.800;2022-07-06T05:18:58;5.93;;;3.28;;
20138;SDS011;10230;51.502;10.800;2022-07-06T05:21:24;8.50;;;4.05;;
20138;SDS011;10230;51.502;10.800;2022-07-06T05:23:50;4.68;;;3.55;;
20138;SDS011;10230;51.502;10.800;2022-07-06T05:26:16;3.63;;;3.03;;
20138;SDS011;10230;51.502;10.800;2022-07-06T05:28:42;6.25;;;3.00;;
20138;SDS011;10230;51.502;10.800;2022-07-06T05:31:08;4.15;;;3.28;;
20138;SDS011;10230;51.502;10.800;2022-07-06T05:33:34;4.50;;;3.65;;
20138;SDS011;10230;51.502;10.800;2022-07-06T05:36:00;3.85;;;2.60;;
20138;SDS011;10230;51.502;10.800;2022-07-06T05:38:27;4.43;;;2.70;;
20138;SDS011;10230;51.502;10.800;2022-07-06T05:40:53;4.60;;;2.65;;
20138;SDS011;10230;51.502;10.800;2022-07-06T05:43:19;4.72;;;1.92;;
20138;SDS011;10230;51.502;10.800;2022-07-06T05:45:45;4.10;;;1.83;;
20138;SDS011;10230;51.502;10.800;2022-07-06T05:48:11;3.72;;;1.98;;
20138;SDS011;10230;51.502;10.800;2022-07-06T05:50:55;3.83;;;1.60;;
20138;SDS011;10230;51.502;10.800;2022-07-06T05:53:21;2.55;;;1.55;;
20138;SDS011;10230;51.502;10.800;2022-07-06T05:55:47;2.55;;;1.40;;
20138;SDS011;10230;51.502;10.800;2022-07-06T05:58:14;2.92;;;1.33;;
20138;SDS011;10230;51.502;10.800;2022-07-06T06:00:40;2.67;;;1.88;;
20138;SDS011;10230;51.502;10.800;2022-07-06T06:03:06;4.78;;;1.85;;
20138;SDS011;10230;51.502;10.800;2022-07-06T06:05:32;3.17;;;1.27;;
20138;SDS011;10230;51.502;10.800;2022-07-06T06:07:58;2.90;;;1.38;;
20138;SDS011;10230;51.502;10.800;2022-07-06T06:10:24;3.40;;;1.30;;
20138;SDS011;10230;51.502;10.800;2022-07-06T06:12:50;1.90;;;1.30;;
20138;SDS011;10230;51.502;10.800;2022-07-06T06:15:16;2.80;;;1.00;;
20138;SDS011;10230;51.502;10.800;2022-07-06T06:17:43;4.97;;;1.20;;
20138;SDS011;10230;51.502;10.800;2022-07-06T06:20:10;2.05;;;1.00;;
20138;SDS011;10230;51.502;10.800;2022-07-06T06:22:49;2.55;;;0.90;;
20138;SDS011;10230;51.502;10.800;2022-07-06T06:25:16;3.22;;;1.30;;
20138;SDS011;10230;51.502;10.800;2022-07-06T06:27:43;4.28;;;1.38;;
20138;SDS011;10230;51.502;10.800;2022-07-06T06:30:09;3.28;;;1.20;;
20138;SDS011;10230;51.502;10.800;2022-07-06T06:32:35;3.60;;;1.20;;
20138;SDS011;10230;51.502;10.800;2022-07-06T06:35:02;3.80;;;1.40;;
20138;SDS011;10230;51.502;10.800;2022-07-06T06:37:28;3.80;;;1.75;;
20138;SDS011;10230;51.502;10.800;2022-07-06T06:39:54;4.47;;;1.58;;
20138;SDS011;10230;51.502;10.800;2022-07-06T06:42:21;3.03;;;1.25;;
20138;SDS011;10230;51.502;10.800;2022-07-06T06:44:47;3.17;;;1.10;;
20138;SDS011;10230;51.502;10.800;2022-07-06T06:47:13;3.28;;;1.60;;
20138;SDS011;10230;51.502;10.800;2022-07-06T06:49:39;7.68;;;1.33;;
20138;SDS011;10230;51.502;10.800;2022-07-06T06:52:05;3.70;;;1.80;;
20138;SDS011;10230;51.502;10.800;2022-07-06T06:54:31;3.42;;;1.00;;
20138;SDS011;10230;51.502;10.800;2022-07-06T06:56:57;5.13;;;1.15;;
20138;SDS011;10230;51.502;10.800;2022-07-06T06:59:23;4.95;;;1.70;;
20138;SDS011;10230;51.502;10.800;2022-07-06T07:01:49;3.63;;;1.00;;
20138;SDS011;10230;51.502;10.800;2022-07-06T07:04:15;3.05;;;1.30;;
20138;SDS011;10230;51.502;10.800;2022-07-06T07:06:41;5.10;;;2.08;;
20138;SDS011;10230;51.502;10.800;2022-07-06T07:09:07;2.83;;;1.10;;
20138;SDS011;10230;51.502;10.800;2022-07-06T07:11:33;2.22;;;0.85;;
20138;SDS011;10230;51.502;10.800;2022-07-06T07:13:59;3.45;;;1.00;;
20138;SDS011;10230;51.502;10.800;2022-07-06T07:16:26;5.13;;;1.17;;
20138;SDS011;10230;51.502;10.800;2022-07-06T07:18:52;3.53;;;1.23;;
20138;SDS011;10230;51.502;10.800;2022-07-06T07:21:18;2.63;;;0.93;;
20138;SDS011;10230;51.502;10.800;2022-07-06T07:23:44;2.33;;;1.10;;
20138;SDS011;10230;51.502;10.800;2022-07-06T07:26:10;2.10;;;1.13;;
20138;SDS011;10230;51.502;10.800;2022-07-06T07:28:36;2.17;;;0.90;;
20138;SDS011;10230;51.502;10.800;2022-07-06T07:31:03;5.55;;;1.40;;
20138;SDS011;10230;51.502;10.800;2022-07-06T07:33:30;1.90;;;0.95;;
20138;SDS011;10230;51.502;10.800;2022-07-06T07:35:56;3.28;;;1.10;;
20138;SDS011;10230;51.502;10.800;2022-07-06T07:38:22;3.58;;;1.02;;
20138;SDS011;10230;51.502;10.800;2022-07-06T07:40:48;1.77;;;1.05;;
20138;SDS011;10230;51.502;10.800;2022-07-06T07:43:14;5.03;;;1.17;;
20138;SDS011;10230;51.502;10.800;2022-07-06T07:45:40;3.13;;;0.82;;
20138;SDS011;10230;51.502;10.800;2022-07-06T07:48:06;2.22;;;1.08;;
20138;SDS011;10230;51.502;10.800;2022-07-06T07:50:32;2.53;;;0.88;;
20138;SDS011;10230;51.502;10.800;2022-07-06T07:52:59;0.70;;;0.50;;
20138;SDS011;10230;51.502;10.800;2022-07-06T07:55:25;1.70;;;0.63;;
20138;SDS011;10230;51.502;10.800;2022-07-06T07:57:51;3.65;;;0.88;;
20138;SDS011;10230;51.502;10.800;2022-07-06T08:00:17;0.95;;;0.70;;
20138;SDS011;10230;51.502;10.800;2022-07-06T08:02:46;2.00;;;0.70;;
20138;SDS011;10230;51.502;10.800;2022-07-06T08:05:12;1.58;;;1.08;;
20138;SDS011;10230;51.502;10.800;2022-07-06T08:07:40;2.95;;;1.02;;
20138;SDS011;10230;51.502;10.800;2022-07-06T08:10:06;0.70;;;0.60;;
20138;SDS011;10230;51.502;10.800;2022-07-06T08:12:33;4.32;;;0.80;;
20138;SDS011;10230;51.502;10.800;2022-07-06T08:14:59;4.00;;;1.20;;
20138;SDS011;10230;51.502;10.800;2022-07-06T08:17:25;4.20;;;0.98;;
20138;SDS011;10230;51.502;10.800;2022-07-06T08:19:51;1.27;;;0.60;;
20138;SDS011;10230;51.502;10.800;2022-07-06T08:22:17;1.52;;;0.73;;
20138;SDS011;10230;51.502;10.800;2022-07-06T08:24:43;2.30;;;0.75;;
20138;SDS011;10230;51.502;10.800;2022-07-06T08:27:09;2.92;;;0.80;;
20138;SDS011;10230;51.502;10.800;2022-07-06T08:29:35;1.67;;;0.85;;
20138;SDS011;10230;51.502;10.800;2022-07-06T08:32:01;1.13;;;0.80;;
20138;SDS011;10230;51.502;10.800;2022-07-06T08:34:27;2.28;;;1.13;;
20138;SDS011;10230;51.502;10.800;2022-07-06T08:36:53;1.73;;;0.90;;
20138;SDS011;10230;51.502;10.800;2022-07-06T08:39:19;1.80;;;0.80;;
20138;SDS011;10230;51.502;10.800;2022-07-06T08:41:45;3.47;;;1.40;;
20138;SDS011;10230;51.502;10.800;2022-07-06T08:44:16;2.45;;;1.00;;
20138;SDS011;10230;51.502;10.800;2022-07-06T08:46:42;3.00;;;0.80;;
20138;SDS011;10230;51.502;10.800;2022-07-06T08:49:12;3.58;;;1.25;;
20138;SDS011;10230;51.502;10.800;2022-07-06T08:51:38;1.38;;;1.00;;
20138;SDS011;10230;51.502;10.800;2022-07-06T08:54:06;3.60;;;1.00;;
20138;SDS011;10230;51.502;10.800;2022-07-06T08:56:33;4.32;;;0.88;;
20138;SDS011;10230;51.502;10.800;2022-07-06T08:58:59;3.08;;;0.93;;
20138;SDS011;10230;51.502;10.800;2022-07-06T09:01:25;2.45;;;0.90;;
20138;SDS011;10230;51.502;10.800;2022-07-06T09:03:52;2.60;;;0.80;;
20138;SDS011;10230;51.502;10.800;2022-07-06T09:06:22;3.25;;;0.90;;
20138;SDS011;10230;51.502;10.800;2022-07-06T09:08:49;1.55;;;0.80;;
20138;SDS011;10230;51.502;10.800;2022-07-06T09:11:16;3.60;;;1.40;;
20138;SDS011;10230;51.502;10.800;2022-07-06T09:13:42;2.97;;;1.20;;
20138;SDS011;10230;51.502;10.800;2022-07-06T09:16:11;2.80;;;1.40;;
20138;SDS011;10230;51.502;10.800;2022-07-06T09:18:38;3.10;;;2.05;;
20138;SDS011;10230;51.502;10.800;2022-07-06T09:21:04;3.20;;;1.33;;
20138;SDS011;10230;51.502;10.800;2022-07-06T09:23:31;1.65;;;0.90;;
20138;SDS011;10230;51.502;10.800;2022-07-06T09:25:59;3.25;;;1.05;;
20138;SDS011;10230;51.502;10.800;2022-07-06T09:28:45;2.63;;;1.30;;
20138;SDS011;10230;51.502;10.800;2022-07-06T09:31:11;1.92;;;1.67;;
20138;SDS011;10230;51.502;10.800;2022-07-06T09:33:37;1.92;;;1.70;;
20138;SDS011;10230;51.502;10.800;2022-07-06T09:36:04;2.08;;;1.30;;
20138;SDS011;10230;51.502;10.800;2022-07-06T09:38:33;1.75;;;0.95;;
20138;SDS011;10230;51.502;10.800;2022-07-06T09:40:59;4.45;;;1.20;;
20138;SDS011;10230;51.502;10.800;2022-07-06T09:43:28;2.53;;;1.05;;
20138;SDS011;10230;51.502;10.800;2022-07-06T09:45:56;1.27;;;0.70;;
20138;SDS011;10230;51.502;10.800;2022-07-06T09:48:23;1.90;;;0.80;;
20138;SDS011;10230;51.502;10.800;2022-07-06T10:25:02;2.60;;;0.70;;
20138;SDS011;10230;51.502;10.800;2022-07-06T10:27:28;1.92;;;0.80;;
20138;SDS011;10230;51.502;10.800;2022-07-06T10:29:55;1.60;;;1.00;;
20138;SDS011;10230;51.502;10.800;2022-07-06T10:32:21;1.20;;;0.73;;
20138;SDS011;10230;51.502;10.800;2022-07-06T10:34:48;3.30;;;0.65;;
20138;SDS011;10230;51.502;10.800;2022-07-06T10:37:27;1.40;;;0.70;;
20138;SDS011;10230;51.502;10.800;2022-07-06T11:00:04;1.65;;;0.75;;
20138;SDS011;10230;51.502;10.800;2022-07-06T11:02:37;2.60;;;1.38;;
20138;SDS011;10230;51.502;10.800;2022-07-06T11:05:03;2.55;;;1.42;;
20138;SDS011;10230;51.502;10.800;2022-07-06T11:07:36;4.32;;;2.50;;
20138;SDS011;10230;51.502;10.800;2022-07-06T11:10:14;3.85;;;2.60;;
20138;SDS011;10230;51.502;10.800;2022-07-06T11:12:44;4.93;;;2.47;;
20138;SDS011;10230;51.502;10.800;2022-07-06T11:15:10;5.65;;;4.20;;
20138;SDS011;10230;51.502;10.800;2022-07-06T11:17:36;2.38;;;1.70;;
20138;SDS011;10230;51.502;10.800;2022-07-06T11:20:11;3.35;;;1.20;;
20138;SDS011;10230;51.502;10.800;2022-07-06T11:22:37;1.27;;;0.90;;
20138;SDS011;10230;51.502;10.800;2022-07-06T11:25:04;2.92;;;0.80;;
20138;SDS011;10230;51.502;10.800;2022-07-06T11:27:31;1.63;;;0.88;;
20138;SDS011;10230;51.502;10.800;2022-07-06T11:29:57;1.13;;;0.70;;
20138;SDS011;10230;51.502;10.800;2022-07-06T11:32:24;3.47;;;1.30;;
20138;SDS011;10230;51.502;10.800;2022-07-06T11:34:50;5.68;;;1.67;;
20138;SDS011;10230;51.502;10.800;2022-07-06T11:37:16;4.15;;;2.55;;
20138;SDS011;10230;51.502;10.800;2022-07-06T11:39:44;6.95;;;2.63;;
20138;SDS011;10230;51.502;10.800;2022-07-06T11:42:10;3.53;;;1.10;;
20138;SDS011;10230;51.502;10.800;2022-07-06T11:44:37;1.55;;;0.70;;
20138;SDS011;10230;51.502;10.800;2022-07-06T11:47:04;1.75;;;0.70;;
20138;SDS011;10230;51.502;10.800;2022-07-06T11:49:31;4.35;;;0.60;;
20138;SDS011;10230;51.502;10.800;2022-07-06T12:18:49;4.43;;;1.15;;
20138;SDS011;10230;51.502;10.800;2022-07-06T12:21:17;1.38;;;0.52;;
20138;SDS011;10230;51.502;10.800;2022-07-06T12:23:47;2.15;;;0.80;;
20138;SDS011;10230;51.502;10.800;2022-07-06T12:26:14;4.05;;;0.88;;
20138;SDS011;10230;51.502;10.800;2022-07-06T12:28:41;2.72;;;0.77;;
20138;SDS011;10230;51.502;10.800;2022-07-06T12:31:08;2.42;;;1.20;;
20138;SDS011;10230;51.502;10.800;2022-07-06T12:33:34;1.33;;;0.60;;
20138;SDS011;10230;51.502;10.800;2022-07-06T12:36:11;1.73;;;0.60;;
20138;SDS011;10230;51.502;10.800;2022-07-06T12:38:40;1.52;;;0.70;;
20138;SDS011;10230;51.502;10.800;2022-07-06T12:41:09;1.98;;;1.00;;
20138;SDS011;10230;51.502;10.800;2022-07-06T12:49:01;2.35;;;0.90;;
20138;SDS011;10230;51.502;10.800;2022-07-06T12:51:27;2.42;;;0.85;;
20138;SDS011;10230;51.502;10.800;2022-07-06T12:54:11;1.23;;;0.70;;
20138;SDS011;10230;51.502;10.800;2022-07-06T13:16:05;1.45;;;0.63;;
20138;SDS011;10230;51.502;10.800;2022-07-06T13:18:31;1.98;;;0.70;;
20138;SDS011;10230;51.502;10.800;2022-07-06T13:20:57;3.50;;;1.00;;
20138;SDS011;10230;51.502;10.800;2022-07-06T13:23:23;2.47;;;0.60;;
20138;SDS011;10230;51.502;10.800;2022-07-06T13:25:49;1.27;;;0.57;;
20138;SDS011;10230;51.502;10.800;2022-07-06T13:28:16;2.42;;;0.80;;
20138;SDS011;10230;51.502;10.800;2022-07-06T13:30:42;3.45;;;0.90;;
20138;SDS011;10230;51.502;10.800;2022-07-06T13:33:08;2.90;;;0.65;;
20138;SDS011;10230;51.502;10.800;2022-07-06T13:35:34;2.45;;;0.77;;
20138;SDS011;10230;51.502;10.800;2022-07-06T13:38:00;4.38;;;0.77;;
20138;SDS011;10230;51.502;10.800;2022-07-06T13:40:26;1.90;;;0.70;;
20138;SDS011;10230;51.502;10.800;2022-07-06T13:42:52;2.45;;;0.70;;
20138;SDS011;10230;51.502;10.800;2022-07-06T13:45:19;1.77;;;0.70;;
20138;SDS011;10230;51.502;10.800;2022-07-06T13:47:45;1.73;;;0.50;;
20138;SDS011;10230;51.502;10.800;2022-07-06T13:50:11;2.03;;;0.50;;
20138;SDS011;10230;51.502;10.800;2022-07-06T13:57:29;1.05;;;0.40;;
20138;SDS011;10230;51.502;10.800;2022-07-06T14:02:21;1.50;;;0.35;;
20138;SDS011;10230;51.502;10.800;2022-07-06T14:04:47;2.65;;;1.55;;
20138;SDS011;10230;51.502;10.800;2022-07-06T14:07:13;2.80;;;0.85;;
20138;SDS011;10230;51.502;10.800;2022-07-06T14:09:39;0.60;;;0.30;;
20138;SDS011;10230;51.502;10.800;2022-07-06T14:12:05;3.65;;;0.73;;
20138;SDS011;10230;51.502;10.800;2022-07-06T14:14:31;2.53;;;0.63;;
20138;SDS011;10230;51.502;10.800;2022-07-06T14:16:57;3.92;;;1.10;;
20138;SDS011;10230;51.502;10.800;2022-07-06T14:19:24;4.05;;;0.52;;
20138;SDS011;10230;51.502;10.800;2022-07-06T14:21:51;1.98;;;0.80;;
20138;SDS011;10230;51.502;10.800;2022-07-06T14:24:17;1.75;;;0.70;;
20138;SDS011;10230;51.502;10.800;2022-07-06T14:26:43;4.82;;;0.77;;
20138;SDS011;10230;51.502;10.800;2022-07-06T14:29:09;3.35;;;0.50;;
20138;SDS011;10230;51.502;10.800;2022-07-06T14:31:35;1.42;;;0.80;;
20138;SDS011;10230;51.502;10.800;2022-07-06T14:34:01;1.60;;;0.50;;
20138;SDS011;10230;51.502;10.800;2022-07-06T14:36:27;1.83;;;0.50;;
20138;SDS011;10230;51.502;10.800;2022-07-06T14:38:53;2.90;;;0.50;;
20138;SDS011;10230;51.502;10.800;2022-07-06T14:41:19;1.48;;;0.50;;
20138;SDS011;10230;51.502;10.800;2022-07-06T14:43:46;2.28;;;0.57;;
20138;SDS011;10230;51.502;10.800;2022-07-06T14:46:12;3.30;;;0.50;;
20138;SDS011;10230;51.502;10.800;2022-07-06T14:48:38;1.80;;;0.70;;
20138;SDS011;10230;51.502;10.800;2022-07-06T14:51:04;0.60;;;0.38;;
20138;SDS011;10230;51.502;10.800;2022-07-06T14:53:30;1.67;;;0.50;;
20138;SDS011;10230;51.502;10.800;2022-07-06T14:55:56;1.08;;;0.60;;
20138;SDS011;10230;51.502;10.800;2022-07-06T14:58:23;1.13;;;0.40;;
20138;SDS011;10230;51.502;10.800;2022-07-06T15:00:50;1.80;;;0.57;;
20138;SDS011;10230;51.502;10.800;2022-07-06T15:03:16;0.75;;;0.52;;
20138;SDS011;10230;51.502;10.800;2022-07-06T15:05:42;0.55;;;0.28;;
20138;SDS011;10230;51.502;10.800;2022-07-06T15:08:11;1.77;;;0.75;;
20138;SDS011;10230;51.502;10.800;2022-07-06T15:10:37;1.88;;;0.82;;
20138;SDS011;10230;51.502;10.800;2022-07-06T15:13:03;2.75;;;0.60;;
20138;SDS011;10230;51.502;10.800;2022-07-06T15:15:30;0.80;;;0.50;;
20138;SDS011;10230;51.502;10.800;2022-07-06T15:17:56;3.08;;;0.90;;
20138;SDS011;10230;51.502;10.800;2022-07-06T15:20:22;1.05;;;0.60;;
20138;SDS011;10230;51.502;10.800;2022-07-06T15:22:48;1.25;;;0.50;;
20138;SDS011;10230;51.502;10.800;2022-07-06T15:25:14;1.55;;;0.47;;
20138;SDS011;10230;51.502;10.800;2022-07-06T15:27:40;1.67;;;1.15;;
20138;SDS011;10230;51.502;10.800;2022-07-06T15:30:06;0.98;;;0.52;;
20138;SDS011;10230;51.502;10.800;2022-07-06T15:32:32;2.63;;;1.10;;
20138;SDS011;10230;51.502;10.800;2022-07-06T15:34:58;2.10;;;0.98;;
20138;SDS011;10230;51.502;10.800;2022-07-06T15:37:25;2.00;;;0.98;;
20138;SDS011;10230;51.502;10.800;2022-07-06T15:39:51;2.85;;;0.90;;
20138;SDS011;10230;51.502;10.800;2022-07-06T15:42:17;3.60;;;0.50;;
20138;SDS011;10230;51.502;10.800;2022-07-06T15:44:43;2.05;;;0.77;;
20138;SDS011;10230;51.502;10.800;2022-07-06T15:47:09;1.58;;;0.55;;
20138;SDS011;10230;51.502;10.800;2022-07-06T15:49:35;0.52;;;0.47;;
20138;SDS011;10230;51.502;10.800;2022-07-06T15:52:01;1.45;;;0.68;;
20138;SDS011;10230;51.502;10.800;2022-07-06T15:54:27;1.08;;;0.60;;
20138;SDS011;10230;51.502;10.800;2022-07-06T15:56:53;2.25;;;0.60;;
20138;SDS011;10230;51.502;10.800;2022-07-06T15:59:19;2.65;;;1.80;;
20138;SDS011;10230;51.502;10.800;2022-07-06T16:01:45;1.77;;;0.68;;
20138;SDS011;10230;51.502;10.800;2022-07-06T16:04:11;1.42;;;0.90;;
20138;SDS011;10230;51.502;10.800;2022-07-06T16:06:37;4.25;;;1.27;;
20138;SDS011;10230;51.502;10.800;2022-07-06T16:09:03;2.38;;;1.38;;
20138;SDS011;10230;51.502;10.800;2022-07-06T16:11:29;2.95;;;0.77;;
20138;SDS011;10230;51.502;10.800;2022-07-06T16:13:55;4.78;;;0.60;;
20138;SDS011;10230;51.502;10.800;2022-07-06T16:16:24;3.45;;;0.60;;
20138;SDS011;10230;51.502;10.800;2022-07-06T16:18:51;7.30;;;0.77;;
20138;SDS011;10230;51.502;10.800;2022-07-06T16:21:17;2.63;;;1.40;;
20138;SDS011;10230;51.502;10.800;2022-07-06T16:23:43;3.13;;;0.85;;